createdAt,value
2017-08-06T00:11:44.000Z,14.2
2017-08-06T00:28:27.000Z,14.2
2017-08-06T00:45:09.000Z,13.9
2017-08-06T01:01:50.000Z,13.6
2017-08-06T01:18:32.000Z,13.3
2017-08-06T01:35:14.000Z,13.3
2017-08-06T01:51:55.000Z,13
2017-08-06T02:08:36.000Z,13
2017-08-06T02:25:17.000Z,12.6
2017-08-06T02:41:58.000Z,12.3
2017-08-06T02:58:37.000Z,12.3
2017-08-06T03:15:17.000Z,12
2017-08-06T03:31:58.000Z,12
2017-08-06T04:05:18.000Z,11.7
2017-08-06T04:21:57.000Z,11.7
2017-08-06T04:38:36.000Z,11.7
2017-08-06T04:55:16.000Z,12
2017-08-06T05:11:57.000Z,12.3
2017-08-06T05:28:38.000Z,12.6
2017-08-06T05:41:59.000Z,13.3
2017-08-06T05:58:40.000Z,13.9
2017-08-06T06:12:02.000Z,14.6
2017-08-06T06:22:03.000Z,15.2
2017-08-06T06:32:05.000Z,15.8
2017-08-06T06:38:47.000Z,16.5
2017-08-06T06:48:49.000Z,17.1
2017-08-06T07:05:34.000Z,17.4
2017-08-06T07:22:19.000Z,17.4
2017-08-06T07:39:03.000Z,18.1
2017-08-06T07:55:48.000Z,18.4
2017-08-06T08:12:35.000Z,18.4
2017-08-06T08:29:20.000Z,19
2017-08-06T08:39:24.000Z,19.7
2017-08-06T08:56:11.000Z,19.7
2017-08-06T09:02:54.000Z,20.3
2017-08-06T09:19:41.000Z,20.6
2017-08-06T09:33:07.000Z,21
2017-08-06T09:46:33.000Z,20.3
2017-08-06T10:00:00.000Z,21
2017-08-06T10:10:05.000Z,21.6
2017-08-06T10:26:53.000Z,21.3
2017-08-06T10:43:42.000Z,21.3
2017-08-06T11:00:30.000Z,21.6
2017-08-06T11:13:57.000Z,22.2
2017-08-06T11:30:46.000Z,22.6
2017-08-06T11:47:36.000Z,22.2
2017-08-06T12:04:25.000Z,22.6
2017-08-06T12:31:21.000Z,23.5
2017-08-06T12:48:11.000Z,23.5
2017-08-06T12:58:18.000Z,24.2
2017-08-06T13:05:02.000Z,23.5
2017-08-06T13:08:25.000Z,22.9
2017-08-06T13:25:14.000Z,23.2
2017-08-06T13:42:04.000Z,23.2
2017-08-06T13:58:54.000Z,23.8
2017-08-06T14:15:45.000Z,23.5
2017-08-06T14:32:35.000Z,23.2
2017-08-06T14:39:19.000Z,23.8
2017-08-06T14:56:10.000Z,23.5
2017-08-06T15:13:00.000Z,23.8
2017-08-06T15:29:51.000Z,23.5
2017-08-06T15:46:41.000Z,24.2
2017-08-06T15:53:26.000Z,23.5
2017-08-06T16:06:54.000Z,22.9
2017-08-06T16:23:43.000Z,22.6
2017-08-06T16:33:49.000Z,23.5
2017-08-06T16:37:11.000Z,24.2
2017-08-06T16:54:02.000Z,24.8
2017-08-06T17:10:53.000Z,24.2
2017-08-06T17:24:23.000Z,24.8
2017-08-06T17:41:15.000Z,23.8
2017-08-06T17:47:59.000Z,23.2
2017-08-06T17:51:21.000Z,22.6
2017-08-06T18:01:27.000Z,21.9
2017-08-06T18:14:53.000Z,21.3
2017-08-06T18:31:41.000Z,21
2017-08-06T18:48:29.000Z,20.6
2017-08-06T19:01:54.000Z,20
2017-08-06T19:18:42.000Z,19.7
2017-08-06T19:32:07.000Z,19
2017-08-06T19:48:52.000Z,18.7
2017-08-06T20:05:39.000Z,18.4
2017-08-06T20:22:24.000Z,18.1
2017-08-06T20:52:32.000Z,17.1
2017-08-06T21:09:16.000Z,16.8
2017-08-06T21:26:01.000Z,16.5
2017-08-06T21:42:44.000Z,16.2
2017-08-06T21:59:28.000Z,15.8
2017-08-06T22:16:11.000Z,15.8
2017-08-06T22:32:55.000Z,15.5
2017-08-06T22:49:37.000Z,15.2
2017-08-06T23:06:20.000Z,15.2
2017-08-06T23:23:03.000Z,14.9
2017-08-06T23:39:45.000Z,14.6
2017-08-06T23:56:28.000Z,14.6
